createdAt,value
2019-03-16T00:04:22.661Z,2.85
2019-03-16T00:09:10.915Z,2.90
2019-03-16T00:14:31.883Z,2.64
2019-03-16T00:19:33.181Z,2.54
2019-03-16T00:24:33.319Z,2.98
2019-03-16T00:29:33.346Z,2.62
2019-03-16T00:34:21.608Z,3.57
2019-03-16T00:39:41.660Z,3.02
2019-03-16T00:44:29.804Z,3.01
2019-03-16T00:49:38.040Z,2.71
2019-03-16T00:54:59.101Z,2.51
2019-03-16T01:00:00.545Z,2.16
2019-03-16T01:04:48.222Z,2.35
2019-03-16T01:11:01.421Z,2.53
2019-03-16T01:16:21.498Z,2.08
2019-03-16T01:21:22.728Z,2.62
2019-03-16T01:26:22.873Z,2.43
2019-03-16T01:31:23.136Z,2.43
2019-03-16T01:36:10.415Z,2.41
2019-03-16T01:41:30.812Z,3.25
2019-03-16T01:46:30.927Z,3.41
2019-03-16T01:51:31.136Z,3.50
2019-03-16T01:56:19.361Z,2.52
2019-03-16T02:01:39.478Z,3.32
2019-03-16T02:06:27.749Z,2.80
2019-03-16T02:11:48.122Z,3.12
2019-03-16T02:16:48.107Z,2.65
2019-03-16T02:21:36.458Z,3.24
2019-03-16T02:26:57.423Z,3.29
2019-03-16T02:31:58.747Z,3.01
2019-03-16T02:36:58.891Z,2.75
2019-03-16T02:41:59.241Z,2.98
2019-03-16T02:46:46.371Z,2.63
2019-03-16T02:52:07.428Z,2.32
2019-03-16T02:57:08.380Z,2.22
2019-03-16T03:02:09.576Z,2.18
2019-03-16T03:06:56.784Z,0.52
2019-03-16T03:12:17.307Z,0.16
2019-03-16T03:17:05.303Z,2.46
2019-03-16T03:22:26.604Z,2.61
2019-03-16T03:27:26.595Z,3.26
2019-03-16T03:32:27.719Z,3.33
2019-03-16T03:37:28.844Z,3.21
2019-03-16T03:42:29.332Z,4.07
2019-03-16T03:47:29.437Z,3.73
2019-03-16T03:52:29.674Z,4.74
2019-03-16T03:57:29.670Z,4.28
2019-03-16T04:02:30.760Z,5.42
2019-03-16T04:07:20.473Z,4.16
2019-03-16T04:12:39.128Z,1.81
2019-03-16T04:17:39.117Z,1.40
2019-03-16T04:22:40.295Z,1.54
2019-03-16T04:27:41.384Z,1.27
2019-03-16T04:32:41.577Z,1.13
2019-03-16T04:37:29.738Z,1.34
2019-03-16T04:42:37.090Z,1.43
2019-03-16T04:47:45.211Z,1.28
2019-03-16T04:53:05.636Z,1.35
2019-03-16T04:58:05.525Z,1.35
2019-03-16T05:03:08.317Z,0.94
2019-03-16T05:07:53.801Z,1.37
2019-03-16T05:13:15.103Z,1.28
2019-03-16T05:18:15.226Z,0.94
2019-03-16T05:23:02.529Z,1.03
2019-03-16T05:28:22.665Z,0.97
2019-03-16T05:33:22.813Z,0.96
2019-03-16T05:38:10.857Z,1.07
2019-03-16T05:43:19.125Z,1.06
2019-03-16T05:48:27.315Z,1.33
2019-03-16T05:53:34.742Z,0.96
2019-03-16T05:58:55.583Z,1.72
2019-03-16T06:03:43.951Z,1.17
2019-03-16T06:09:04.058Z,1.55
2019-03-16T06:13:51.349Z,1.82
2019-03-16T06:18:58.492Z,1.60
2019-03-16T06:24:06.749Z,1.74
2019-03-16T06:29:13.986Z,1.89
2019-03-16T06:34:35.331Z,2.80
2019-03-16T06:39:36.317Z,2.06
2019-03-16T06:44:24.543Z,2.13
2019-03-16T06:49:45.658Z,2.15
2019-03-16T06:54:46.423Z,2.08
2019-03-16T06:59:33.679Z,2.01
2019-03-16T07:04:41.101Z,3.12
2019-03-16T07:10:02.219Z,2.49
2019-03-16T07:14:49.529Z,3.61
2019-03-16T07:19:57.761Z,2.34
2019-03-16T07:25:18.069Z,2.55
2019-03-16T07:30:18.040Z,2.63
2019-03-16T07:35:06.308Z,2.84
2019-03-16T07:40:27.444Z,2.88
2019-03-16T07:45:27.528Z,4.70
2019-03-16T07:50:28.615Z,2.41
2019-03-16T07:55:15.866Z,2.61
2019-03-16T08:00:23.171Z,2.97
2019-03-16T08:05:44.305Z,2.82
2019-03-16T08:10:32.520Z,2.75
2019-03-16T08:20:43.415Z,2.55
2019-03-16T08:25:51.776Z,3.83
2019-03-16T08:31:11.778Z,2.50
2019-03-16T08:46:20.108Z,1.93
2019-03-16T08:51:07.370Z,2.18
2019-03-16T08:56:27.719Z,1.60
2019-03-16T09:01:27.809Z,1.83
2019-03-16T09:06:28.905Z,1.80
2019-03-16T09:11:30.066Z,1.27
2019-03-16T09:16:30.561Z,1.88
2019-03-16T09:21:30.627Z,1.80
2019-03-16T09:26:18.782Z,1.18
2019-03-16T09:31:39.784Z,1.81
2019-03-16T09:36:41.174Z,1.61
2019-03-16T09:41:41.226Z,1.85
2019-03-16T09:46:29.733Z,1.22
2019-03-16T09:51:36.982Z,1.26
2019-03-16T09:56:45.156Z,1.54
2019-03-16T10:02:05.286Z,0.91
2019-03-16T10:07:05.443Z,0.80
2019-03-16T10:11:53.724Z,0.75
2019-03-16T10:17:14.066Z,0.92
2019-03-16T10:22:14.078Z,0.59
2019-03-16T10:27:15.418Z,0.60
2019-03-16T10:32:15.534Z,0.70
2019-03-16T10:37:15.889Z,0.61
2019-03-16T10:42:03.002Z,0.53
2019-03-16T10:47:11.413Z,0.50
2019-03-16T10:52:19.491Z,0.74
2019-03-16T10:57:28.266Z,0.81
2019-03-16T11:02:48.187Z,0.79
2019-03-16T11:07:36.668Z,0.53
2019-03-16T11:12:43.949Z,0.80
2019-03-16T11:17:51.324Z,0.87
2019-03-16T11:23:11.464Z,0.45
2019-03-16T11:27:58.665Z,0.84
2019-03-16T11:33:19.585Z,0.62
2019-03-16T11:38:20.683Z,0.50
2019-03-16T11:43:08.749Z,0.52
2019-03-16T11:48:17.686Z,0.29
2019-03-16T11:53:24.855Z,0.50
2019-03-16T11:58:46.283Z,0.17
2019-03-16T12:03:46.264Z,0.33
2019-03-16T12:08:34.588Z,0.32
2019-03-16T12:13:55.744Z,0.37
2019-03-16T12:18:56.014Z,0.47
2019-03-16T12:23:57.052Z,0.36
2019-03-16T12:28:57.160Z,0.19
2019-03-16T12:33:58.131Z,0.31
2019-03-16T12:38:46.403Z,0.72
2019-03-16T12:44:06.409Z,0.31
2019-03-16T12:48:54.575Z,0.47
2019-03-16T12:54:03.067Z,0.37
2019-03-16T12:59:11.701Z,0.44
2019-03-16T13:04:19.109Z,0.36
2019-03-16T13:09:42.129Z,0.34
2019-03-16T13:14:39.433Z,0.30
2019-03-16T13:19:27.683Z,0.28
2019-03-16T13:24:48.778Z,0.27
2019-03-16T13:29:37.032Z,0.21
2019-03-16T13:34:57.042Z,0.25
2019-03-16T13:39:45.348Z,0.26
2019-03-16T13:45:06.454Z,0.30
2019-03-16T13:49:53.803Z,0.35
2019-03-16T13:55:13.950Z,0.27
2019-03-16T14:00:11.230Z,0.54
2019-03-16T14:05:08.463Z,0.28
2019-03-16T14:10:16.023Z,0.28
2019-03-16T14:15:23.297Z,0.33
2019-03-16T14:20:30.668Z,0.23
2019-03-16T14:25:37.876Z,0.23
2019-03-16T14:30:58.056Z,0.24
2019-03-16T14:35:58.184Z,0.12
2019-03-16T14:40:46.205Z,0.20
2019-03-16T14:46:07.219Z,0.26
2019-03-16T14:51:08.307Z,0.18
2019-03-16T14:56:09.291Z,0.29
2019-03-16T15:01:10.357Z,0.22
2019-03-16T15:06:11.328Z,0.26
2019-03-16T15:11:12.744Z,0.21
2019-03-16T15:16:12.867Z,0.15
2019-03-16T15:21:00.161Z,0.35
2019-03-16T15:26:08.244Z,0.28
2019-03-16T15:31:28.587Z,0.21
2019-03-16T15:36:28.700Z,0.20
2019-03-16T15:41:28.965Z,0.26
2019-03-16T15:46:28.947Z,0.26
2019-03-16T15:52:27.359Z,0.25
2019-03-16T15:57:38.303Z,0.11
2019-03-16T16:02:39.559Z,0.31
2019-03-16T16:07:40.619Z,0.24
2019-03-16T16:12:40.869Z,0.38
2019-03-16T16:17:41.000Z,0.37
2019-03-16T16:22:41.253Z,0.34
2019-03-16T16:27:41.378Z,0.35
2019-03-16T16:32:41.659Z,0.54
2019-03-16T16:37:28.791Z,0.69
2019-03-16T16:42:50.546Z,0.61
2019-03-16T16:47:50.661Z,0.98
2019-03-16T16:52:50.947Z,0.81
2019-03-16T16:57:51.072Z,0.79
2019-03-16T17:02:51.398Z,0.50
2019-03-16T17:07:51.542Z,0.59
2019-03-16T17:12:51.731Z,1.26
2019-03-16T17:17:52.790Z,1.23
2019-03-16T17:22:53.031Z,1.55
2019-03-16T17:27:40.163Z,1.91
2019-03-16T17:33:01.450Z,2.04
2019-03-16T17:38:01.565Z,1.58
2019-03-16T17:43:01.733Z,1.25
2019-03-16T17:47:49.769Z,1.72
2019-03-16T17:52:58.098Z,1.64
2019-03-16T17:58:06.222Z,1.70
2019-03-16T18:03:27.440Z,1.75
2019-03-16T18:08:27.383Z,1.50
2019-03-16T18:13:15.866Z,1.81
2019-03-16T18:18:35.850Z,1.52
2019-03-16T18:23:24.110Z,1.69
2019-03-16T18:28:45.214Z,2.07
2019-03-16T18:33:45.582Z,1.61
2019-03-16T18:43:49.791Z,1.16
2019-03-16T18:48:50.165Z,1.66
2019-03-16T18:58:41.835Z,1.11
2019-03-16T19:03:52.257Z,1.13
2019-03-16T19:13:53.409Z,1.11
2019-03-16T19:18:53.515Z,0.90
2019-03-16T19:23:53.582Z,1.11
2019-03-16T19:28:54.697Z,0.97
2019-03-16T19:33:54.855Z,1.12
2019-03-16T19:38:56.966Z,1.10
2019-03-16T19:43:57.092Z,1.52
2019-03-16T19:48:58.059Z,0.95
2019-03-16T19:53:59.278Z,1.14
2019-03-16T19:59:00.795Z,1.22
2019-03-16T20:03:46.634Z,0.94
2019-03-16T20:08:54.722Z,1.24
2019-03-16T20:14:02.847Z,1.21
2019-03-16T20:19:11.075Z,1.20
2019-03-16T20:24:31.343Z,1.10
2019-03-16T20:29:31.330Z,1.61
2019-03-16T20:34:32.641Z,1.41
2019-03-16T20:39:32.736Z,1.41
2019-03-16T20:44:33.827Z,1.31
2019-03-16T20:49:34.904Z,1.37
2019-03-16T20:54:35.055Z,1.67
2019-03-16T20:59:36.002Z,1.56
2019-03-16T21:04:37.305Z,1.79
2019-03-16T21:09:37.286Z,1.74
2019-03-16T21:14:38.368Z,1.65
2019-03-16T21:19:39.314Z,1.33
2019-03-16T21:24:40.775Z,1.42
2019-03-16T21:29:41.380Z,1.28
2019-03-16T21:34:41.623Z,1.14
2019-03-16T21:44:46.339Z,1.27
2019-03-16T21:49:34.501Z,1.24
2019-03-16T21:54:55.792Z,0.98
2019-03-16T21:59:56.499Z,1.23
2019-03-16T22:04:56.663Z,1.05
2019-03-16T22:09:56.765Z,1.05
2019-03-16T22:14:57.153Z,0.88
2019-03-16T22:19:58.028Z,0.84
2019-03-16T22:24:46.577Z,0.69
2019-03-16T22:29:53.833Z,0.65
2019-03-16T22:35:14.124Z,0.77
2019-03-16T22:40:01.324Z,0.68
2019-03-16T22:45:08.568Z,0.80
2019-03-16T22:50:16.602Z,1.25
2019-03-16T22:55:37.886Z,1.05
2019-03-16T23:00:24.964Z,1.08
2019-03-16T23:05:33.304Z,1.02
2019-03-16T23:10:53.453Z,1.02
2019-03-16T23:15:40.908Z,0.84
2019-03-16T23:21:01.923Z,1.00
2019-03-16T23:26:03.137Z,0.93
2019-03-16T23:31:03.240Z,1.25
2019-03-16T23:35:50.482Z,1.05
2019-03-16T23:41:11.588Z,1.16
2019-03-16T23:46:11.958Z,1.34
2019-03-16T23:51:12.085Z,1.52
2019-03-16T23:56:12.161Z,1.16
